sensor_id;sensor_type;location;lat;lon;timestamp;pressure;altitude;pressure_sealevel;temperature;humidity
69980;BME280;57318;56.232;43.944;2023-04-27T00:00:06;98142.44;;;11.46;81.36
69980;BME280;57318;56.232;43.944;2023-04-27T00:02:36;98146.38;;;11.42;81.56
69980;BME280;57318;56.232;43.944;2023-04-27T00:05:04;98145.72;;;11.40;81.60
69980;BME280;57318;56.232;43.944;2023-04-27T00:07:31;98147.53;;;11.40;81.56
69980;BME280;57318;56.232;43.944;2023-04-27T00:09:56;98154.03;;;11.37;81.56
69980;BME280;57318;56.232;43.944;2023-04-27T00:12:22;98160.97;;;11.38;81.58
69980;BME280;57318;56.232;43.944;2023-04-27T00:14:48;98157.50;;;11.37;81.47
69980;BME280;57318;56.232;43.944;2023-04-27T00:17:14;98159.34;;;11.37;81.61
69980;BME280;57318;56.232;43.944;2023-04-27T00:19:40;98161.16;;;11.36;81.30
69980;BME280;57318;56.232;43.944;2023-04-27T00:22:07;98173.63;;;11.36;81.41
69980;BME280;57318;56.232;43.944;2023-04-27T00:24:33;98170.63;;;11.31;81.51
69980;BME280;57318;56.232;43.944;2023-04-27T00:26:59;98175.41;;;11.27;81.54
69980;BME280;57318;56.232;43.944;2023-04-27T00:29:24;98179.38;;;11.23;81.84
69980;BME280;57318;56.232;43.944;2023-04-27T00:31:50;98174.38;;;11.20;81.77
69980;BME280;57318;56.232;43.944;2023-04-27T00:34:16;98170.88;;;11.19;81.67
69980;BME280;57318;56.232;43.944;2023-04-27T00:36:43;98182.81;;;11.15;81.71
69980;BME280;57318;56.232;43.944;2023-04-27T00:39:08;98177.66;;;11.14;81.90
69980;BME280;57318;56.232;43.944;2023-04-27T00:41:37;98179.50;;;11.13;81.86
69980;BME280;57318;56.232;43.944;2023-04-27T00:44:04;98188.91;;;11.08;81.66
69980;BME280;57318;56.232;43.944;2023-04-27T00:46:30;98176.63;;;11.07;82.03
69980;BME280;57318;56.232;43.944;2023-04-27T00:48:56;98177.47;;;11.07;81.89
69980;BME280;57318;56.232;43.944;2023-04-27T00:51:22;98178.44;;;11.06;81.95
69980;BME280;57318;56.232;43.944;2023-04-27T00:53:52;98176.47;;;11.08;81.87
69980;BME280;57318;56.232;43.944;2023-04-27T00:56:18;98184.47;;;11.08;81.62
69980;BME280;57318;56.232;43.944;2023-04-27T00:58:44;98180.78;;;11.09;81.59
69980;BME280;57318;56.232;43.944;2023-04-27T01:01:10;98184.78;;;11.05;81.63
69980;BME280;57318;56.232;43.944;2023-04-27T01:03:36;98184.78;;;11.05;81.58
69980;BME280;57318;56.232;43.944;2023-04-27T01:06:02;98188.41;;;11.04;81.54
69980;BME280;57318;56.232;43.944;2023-04-27T01:08:28;98184.38;;;11.00;81.69
69980;BME280;57318;56.232;43.944;2023-04-27T01:10:54;98180.75;;;11.01;82.05
69980;BME280;57318;56.232;43.944;2023-04-27T01:13:20;98191.22;;;11.02;81.87
69980;BME280;57318;56.232;43.944;2023-04-27T01:15:46;98189.53;;;11.01;81.52
69980;BME280;57318;56.232;43.944;2023-04-27T01:18:12;98186.88;;;11.01;81.79
69980;BME280;57318;56.232;43.944;2023-04-27T01:20:38;98186.06;;;11.01;81.93
69980;BME280;57318;56.232;43.944;2023-04-27T01:23:04;98187.91;;;11.00;81.67
69980;BME280;57318;56.232;43.944;2023-04-27T01:25:30;98199.50;;;10.99;81.80
69980;BME280;57318;56.232;43.944;2023-04-27T01:27:56;98189.69;;;11.00;81.72
69980;BME280;57318;56.232;43.944;2023-04-27T01:30:21;98201.50;;;10.97;81.73
69980;BME280;57318;56.232;43.944;2023-04-27T01:32:48;98199.66;;;10.98;81.67
69980;BME280;57318;56.232;43.944;2023-04-27T01:35:14;98205.13;;;10.96;82.00
69980;BME280;57318;56.232;43.944;2023-04-27T01:37:40;98200.13;;;10.93;81.88
69980;BME280;57318;56.232;43.944;2023-04-27T01:40:06;98205.75;;;10.90;81.89
69980;BME280;57318;56.232;43.944;2023-04-27T01:42:33;98212.19;;;10.88;81.88
69980;BME280;57318;56.232;43.944;2023-04-27T01:44:59;98216.69;;;10.87;82.12
69980;BME280;57318;56.232;43.944;2023-04-27T01:47:25;98214.03;;;10.87;81.89
69980;BME280;57318;56.232;43.944;2023-04-27T01:49:52;98211.22;;;10.89;81.83
69980;BME280;57318;56.232;43.944;2023-04-27T01:52:18;98218.22;;;10.90;81.69
69980;BME280;57318;56.232;43.944;2023-04-27T01:54:44;98213.06;;;10.88;81.66
69980;BME280;57318;56.232;43.944;2023-04-27T01:57:09;98229.81;;;10.89;81.77
69980;BME280;57318;56.232;43.944;2023-04-27T01:59:35;98220.34;;;10.86;81.55
69980;BME280;57318;56.232;43.944;2023-04-27T02:02:01;98230.13;;;10.86;81.57
69980;BME280;57318;56.232;43.944;2023-04-27T02:04:26;98230.97;;;10.86;81.69
69980;BME280;57318;56.232;43.944;2023-04-27T02:06:52;98225.50;;;10.88;81.68
69980;BME280;57318;56.232;43.944;2023-04-27T02:09:18;98240.47;;;10.89;81.62
69980;BME280;57318;56.232;43.944;2023-04-27T02:11:43;98247.75;;;10.87;81.43
69980;BME280;57318;56.232;43.944;2023-04-27T02:14:09;98236.28;;;10.86;81.59
69980;BME280;57318;56.232;43.944;2023-04-27T02:16:55;98232.78;;;10.86;81.74
69980;BME280;57318;56.232;43.944;2023-04-27T02:19:20;98236.13;;;10.88;81.84
69980;BME280;57318;56.232;43.944;2023-04-27T02:21:46;98239.78;;;10.87;81.65
69980;BME280;57318;56.232;43.944;2023-04-27T02:24:12;98235.97;;;10.89;81.55
69980;BME280;57318;56.232;43.944;2023-04-27T02:26:37;98242.81;;;10.92;81.39
69980;BME280;57318;56.232;43.944;2023-04-27T02:29:03;98240.81;;;10.94;81.28
69980;BME280;57318;56.232;43.944;2023-04-27T02:31:29;98248.94;;;10.92;80.92
69980;BME280;57318;56.232;43.944;2023-04-27T02:33:55;98247.97;;;10.93;80.88
69980;BME280;57318;56.232;43.944;2023-04-27T02:36:21;98254.41;;;10.91;80.83
69980;BME280;57318;56.232;43.944;2023-04-27T02:38:46;98248.28;;;10.90;80.99
69980;BME280;57318;56.232;43.944;2023-04-27T02:41:12;98243.78;;;10.91;81.01
69980;BME280;57318;56.232;43.944;2023-04-27T02:43:38;98255.94;;;10.93;80.50
69980;BME280;57318;56.232;43.944;2023-04-27T02:46:03;98252.47;;;10.93;80.55
69980;BME280;57318;56.232;43.944;2023-04-27T02:48:30;98254.97;;;10.94;80.61
69980;BME280;57318;56.232;43.944;2023-04-27T02:50:55;98269.06;;;10.95;80.36
69980;BME280;57318;56.232;43.944;2023-04-27T02:53:21;98275.06;;;10.97;80.21
69980;BME280;57318;56.232;43.944;2023-04-27T02:55:48;98267.78;;;10.99;80.05
69980;BME280;57318;56.232;43.944;2023-04-27T02:58:14;98265.44;;;10.96;80.33
69980;BME280;57318;56.232;43.944;2023-04-27T03:00:41;98275.06;;;10.97;80.30
69980;BME280;57318;56.232;43.944;2023-04-27T03:03:07;98285.53;;;10.98;80.49
69980;BME280;57318;56.232;43.944;2023-04-27T03:05:36;98289.06;;;10.99;80.25
69980;BME280;57318;56.232;43.944;2023-04-27T03:08:02;98282.72;;;11.00;80.47
69980;BME280;57318;56.232;43.944;2023-04-27T03:10:28;98294.22;;;11.00;80.54
69980;BME280;57318;56.232;43.944;2023-04-27T03:12:54;98301.03;;;11.03;80.52
69980;BME280;57318;56.232;43.944;2023-04-27T03:15:20;98303.69;;;11.03;80.60
69980;BME280;57318;56.232;43.944;2023-04-27T03:17:47;98309.06;;;11.11;80.20
69980;BME280;57318;56.232;43.944;2023-04-27T03:20:12;98308.00;;;11.22;80.09
69980;BME280;57318;56.232;43.944;2023-04-27T03:22:38;98309.50;;;11.25;79.71
69980;BME280;57318;56.232;43.944;2023-04-27T03:25:04;98313.16;;;11.24;79.47
69980;BME280;57318;56.232;43.944;2023-04-27T03:27:30;98314.97;;;11.23;79.44
69980;BME280;57318;56.232;43.944;2023-04-27T03:29:56;98320.75;;;11.18;79.75
69980;BME280;57318;56.232;43.944;2023-04-27T03:32:21;98324.72;;;11.14;79.96
69980;BME280;57318;56.232;43.944;2023-04-27T03:34:47;98330.34;;;11.11;80.01
69980;BME280;57318;56.232;43.944;2023-04-27T03:37:13;98327.69;;;11.11;80.18
69980;BME280;57318;56.232;43.944;2023-04-27T03:39:39;98330.34;;;11.11;80.15
69980;BME280;57318;56.232;43.944;2023-04-27T03:42:04;98332.53;;;11.16;80.16
69980;BME280;57318;56.232;43.944;2023-04-27T03:44:30;98335.03;;;11.17;79.88
69980;BME280;57318;56.232;43.944;2023-04-27T03:46:58;98334.72;;;11.20;79.95
69980;BME280;57318;56.232;43.944;2023-04-27T03:49:23;98333.97;;;11.28;79.67
69980;BME280;57318;56.232;43.944;2023-04-27T03:51:50;98337.16;;;11.32;79.61
69980;BME280;57318;56.232;43.944;2023-04-27T03:54:16;98327.25;;;11.42;79.12
69980;BME280;57318;56.232;43.944;2023-04-27T03:56:41;98335.59;;;11.47;78.60
69980;BME280;57318;56.232;43.944;2023-04-27T03:59:09;98340.28;;;11.53;78.56
69980;BME280;57318;56.232;43.944;2023-04-27T04:01:34;98341.66;;;11.58;78.33
69980;BME280;57318;56.232;43.944;2023-04-27T04:04:01;98346.66;;;11.61;78.21
69980;BME280;57318;56.232;43.944;2023-04-27T04:06:27;98350.66;;;11.65;77.81
69980;BME280;57318;56.232;43.944;2023-04-27T04:08:53;98352.81;;;11.61;77.63
69980;BME280;57318;56.232;43.944;2023-04-27T04:11:19;98349.69;;;11.66;77.63
69980;BME280;57318;56.232;43.944;2023-04-27T04:13:45;98358.03;;;11.71;77.30
69980;BME280;57318;56.232;43.944;2023-04-27T04:16:12;98362.38;;;11.72;77.24
69980;BME280;57318;56.232;43.944;2023-04-27T04:18:38;98363.19;;;11.72;76.99
69980;BME280;57318;56.232;43.944;2023-04-27T04:21:03;98363.75;;;11.76;76.75
69980;BME280;57318;56.232;43.944;2023-04-27T04:23:30;98358.72;;;11.73;76.99
69980;BME280;57318;56.232;43.944;2023-04-27T04:25:57;98366.41;;;11.76;76.86
69980;BME280;57318;56.232;43.944;2023-04-27T04:28:24;98365.53;;;11.76;76.73
69980;BME280;57318;56.232;43.944;2023-04-27T04:30:50;98364.56;;;11.77;76.26
69980;BME280;57318;56.232;43.944;2023-04-27T04:33:16;98364.41;;;11.78;76.34
69980;BME280;57318;56.232;43.944;2023-04-27T04:35:43;98364.72;;;11.75;76.28
69980;BME280;57318;56.232;43.944;2023-04-27T04:38:09;98370.03;;;11.75;76.52
69980;BME280;57318;56.232;43.944;2023-04-27T04:40:37;98366.09;;;11.79;76.46
69980;BME280;57318;56.232;43.944;2023-04-27T04:43:03;98370.63;;;11.87;75.78
69980;BME280;57318;56.232;43.944;2023-04-27T04:45:28;98376.47;;;11.90;75.57
69980;BME280;57318;56.232;43.944;2023-04-27T04:47:54;98383.00;;;11.96;75.16
69980;BME280;57318;56.232;43.944;2023-04-27T04:50:20;98380.19;;;11.98;75.19
69980;BME280;57318;56.232;43.944;2023-04-27T04:52:47;98387.81;;;11.93;75.40
69980;BME280;57318;56.232;43.944;2023-04-27T04:55:13;98392.44;;;11.90;75.35
69980;BME280;57318;56.232;43.944;2023-04-27T04:57:39;98384.53;;;11.99;75.24
69980;BME280;57318;56.232;43.944;2023-04-27T05:00:05;98392.53;;;12.07;74.81
69980;BME280;57318;56.232;43.944;2023-04-27T05:02:36;98403.91;;;12.09;74.08
69980;BME280;57318;56.232;43.944;2023-04-27T05:05:02;98386.75;;;12.12;73.94
69980;BME280;57318;56.232;43.944;2023-04-27T05:07:30;98397.94;;;12.15;73.15
69980;BME280;57318;56.232;43.944;2023-04-27T05:09:55;98390.59;;;12.09;73.07
69980;BME280;57318;56.232;43.944;2023-04-27T05:12:21;98399.91;;;12.13;72.55
69980;BME280;57318;56.232;43.944;2023-04-27T05:14:47;98403.78;;;12.19;72.50
69980;BME280;57318;56.232;43.944;2023-04-27T05:17:13;98399.94;;;12.21;72.39
69980;BME280;57318;56.232;43.944;2023-04-27T05:19:39;98399.13;;;12.21;71.96
69980;BME280;57318;56.232;43.944;2023-04-27T05:22:05;98413.63;;;12.26;71.84
69980;BME280;57318;56.232;43.944;2023-04-27T05:24:31;98402.69;;;12.38;71.38
69980;BME280;57318;56.232;43.944;2023-04-27T05:26:57;98412.75;;;12.52;70.42
69980;BME280;57318;56.232;43.944;2023-04-27T05:29:22;98417.94;;;12.62;70.19
69980;BME280;57318;56.232;43.944;2023-04-27T05:31:48;98413.16;;;12.74;69.61
69980;BME280;57318;56.232;43.944;2023-04-27T05:34:14;98421.50;;;12.87;68.99
69980;BME280;57318;56.232;43.944;2023-04-27T05:36:40;98418.56;;;12.98;68.25
69980;BME280;57318;56.232;43.944;2023-04-27T05:39:06;98419.56;;;13.14;67.50
69980;BME280;57318;56.232;43.944;2023-04-27T05:41:32;98421.94;;;13.25;66.95
69980;BME280;57318;56.232;43.944;2023-04-27T05:43:58;98422.09;;;13.32;65.79
69980;BME280;57318;56.232;43.944;2023-04-27T05:46:23;98416.63;;;13.42;65.61
69980;BME280;57318;56.232;43.944;2023-04-27T05:48:49;98429.63;;;13.53;64.81
69980;BME280;57318;56.232;43.944;2023-04-27T05:51:15;98426.28;;;13.67;64.29
69980;BME280;57318;56.232;43.944;2023-04-27T05:53:41;98427.31;;;13.75;64.29
69980;BME280;57318;56.232;43.944;2023-04-27T05:56:07;98430.31;;;13.71;63.70
69980;BME280;57318;56.232;43.944;2023-04-27T05:58:33;98437.31;;;13.64;63.74
69980;BME280;57318;56.232;43.944;2023-04-27T06:01:00;98439.63;;;13.67;63.83
69980;BME280;57318;56.232;43.944;2023-04-27T06:03:26;98442.13;;;13.69;63.84
69980;BME280;57318;56.232;43.944;2023-04-27T06:05:55;98438.47;;;13.78;63.70
69980;BME280;57318;56.232;43.944;2023-04-27T06:08:22;98453.84;;;13.76;63.50
69980;BME280;57318;56.232;43.944;2023-04-27T06:10:49;98448.81;;;13.81;63.50
69980;BME280;57318;56.232;43.944;2023-04-27T06:13:16;98453.81;;;13.93;63.04
69980;BME280;57318;56.232;43.944;2023-04-27T06:15:42;98450.81;;;13.96;62.91
69980;BME280;57318;56.232;43.944;2023-04-27T06:18:07;98456.16;;;13.87;62.75
69980;BME280;57318;56.232;43.944;2023-04-27T06:20:33;98450.81;;;13.79;63.41
69980;BME280;57318;56.232;43.944;2023-04-27T06:22:59;98471.53;;;13.77;63.36
69980;BME280;57318;56.232;43.944;2023-04-27T06:25:26;98491.88;;;13.70;63.58
69980;BME280;57318;56.232;43.944;2023-04-27T06:27:55;98480.34;;;13.61;63.69
69980;BME280;57318;56.232;43.944;2023-04-27T06:30:22;98491.88;;;13.62;64.14
69980;BME280;57318;56.232;43.944;2023-04-27T06:32:48;98488.03;;;13.56;64.02
69980;BME280;57318;56.232;43.944;2023-04-27T06:35:15;98492.88;;;13.52;64.31
69980;BME280;57318;56.232;43.944;2023-04-27T06:37:41;98483.53;;;13.57;64.12
69980;BME280;57318;56.232;43.944;2023-04-27T06:40:07;98491.88;;;13.62;64.17
69980;BME280;57318;56.232;43.944;2023-04-27T06:42:33;98487.84;;;13.66;63.99
69980;BME280;57318;56.232;43.944;2023-04-27T06:44:59;98491.03;;;13.78;63.74
69980;BME280;57318;56.232;43.944;2023-04-27T06:47:25;98496.72;;;14.07;62.65
69980;BME280;57318;56.232;43.944;2023-04-27T06:49:52;98489.00;;;14.29;61.70
69980;BME280;57318;56.232;43.944;2023-04-27T06:52:17;98505.81;;;14.46;61.19
69980;BME280;57318;56.232;43.944;2023-04-27T06:54:43;98500.44;;;14.71;60.54
69980;BME280;57318;56.232;43.944;2023-04-27T06:57:09;98499.56;;;14.78;59.78
69980;BME280;57318;56.232;43.944;2023-04-27T06:59:35;98505.22;;;14.84;59.39
69980;BME280;57318;56.232;43.944;2023-04-27T07:02:00;98510.56;;;14.84;59.80
69980;BME280;57318;56.232;43.944;2023-04-27T07:04:26;98520.63;;;14.82;60.08
69980;BME280;57318;56.232;43.944;2023-04-27T07:06:52;98522.00;;;14.69;59.98
69980;BME280;57318;56.232;43.944;2023-04-27T07:09:18;98523.88;;;14.60;59.86
69980;BME280;57318;56.232;43.944;2023-04-27T07:11:43;98525.84;;;14.58;60.05
69980;BME280;57318;56.232;43.944;2023-04-27T07:14:09;98529.03;;;14.54;59.51
69980;BME280;57318;56.232;43.944;2023-04-27T07:16:35;98525.69;;;14.60;59.33
69980;BME280;57318;56.232;43.944;2023-04-27T07:19:01;98525.84;;;14.58;59.22
69980;BME280;57318;56.232;43.944;2023-04-27T07:21:26;98524.19;;;14.66;58.75
69980;BME280;57318;56.232;43.944;2023-04-27T07:23:53;98546.75;;;14.63;58.59
69980;BME280;57318;56.232;43.944;2023-04-27T07:26:19;98551.09;;;14.56;58.64
69980;BME280;57318;56.232;43.944;2023-04-27T07:28:48;98547.06;;;14.52;58.97
69980;BME280;57318;56.232;43.944;2023-04-27T07:31:15;98547.41;;;14.57;58.50
69980;BME280;57318;56.232;43.944;2023-04-27T07:33:41;98555.75;;;14.54;58.87
69980;BME280;57318;56.232;43.944;2023-04-27T07:36:07;98551.56;;;14.59;58.79
69980;BME280;57318;56.232;43.944;2023-04-27T07:38:33;98565.13;;;14.66;58.79
69980;BME280;57318;56.232;43.944;2023-04-27T07:41:02;98558.78;;;14.67;58.82
69980;BME280;57318;56.232;43.944;2023-04-27T07:43:30;98558.25;;;14.80;58.92
69980;BME280;57318;56.232;43.944;2023-04-27T07:45:57;98562.34;;;14.99;58.07
69980;BME280;57318;56.232;43.944;2023-04-27T07:48:23;98565.16;;;15.06;57.88
69980;BME280;57318;56.232;43.944;2023-04-27T07:50:49;98568.69;;;14.98;58.15
69980;BME280;57318;56.232;43.944;2023-04-27T07:53:15;98567.75;;;14.91;58.17
69980;BME280;57318;56.232;43.944;2023-04-27T07:55:42;98572.75;;;14.94;58.21
69980;BME280;57318;56.232;43.944;2023-04-27T07:58:10;98587.09;;;15.01;58.09
69980;BME280;57318;56.232;43.944;2023-04-27T08:00:37;98577.06;;;15.03;57.84
69980;BME280;57318;56.232;43.944;2023-04-27T08:03:03;98586.06;;;15.10;57.80
69980;BME280;57318;56.232;43.944;2023-04-27T08:05:28;98585.31;;;15.25;57.68
69980;BME280;57318;56.232;43.944;2023-04-27T08:07:54;98587.31;;;15.31;57.60
69980;BME280;57318;56.232;43.944;2023-04-27T08:10:21;98593.00;;;15.28;57.49
69980;BME280;57318;56.232;43.944;2023-04-27T08:12:47;98592.34;;;15.26;57.44
69980;BME280;57318;56.232;43.944;2023-04-27T08:15:14;98594.38;;;15.24;57.40
69980;BME280;57318;56.232;43.944;2023-04-27T08:17:40;98606.25;;;15.21;57.71
69980;BME280;57318;56.232;43.944;2023-04-27T08:20:07;98593.25;;;15.10;58.02
69980;BME280;57318;56.232;43.944;2023-04-27T08:22:37;98603.13;;;15.01;58.54
69980;BME280;57318;56.232;43.944;2023-04-27T08:25:04;98607.34;;;14.95;59.23
69980;BME280;57318;56.232;43.944;2023-04-27T08:27:30;98608.47;;;15.09;59.44
69980;BME280;57318;56.232;43.944;2023-04-27T08:29:55;98605.22;;;15.62;58.63
69980;BME280;57318;56.232;43.944;2023-04-27T08:32:21;98610.53;;;16.86;55.65
69980;BME280;57318;56.232;43.944;2023-04-27T08:34:47;98612.34;;;17.96;52.62
69980;BME280;57318;56.232;43.944;2023-04-27T08:37:14;98614.38;;;20.79;46.00
69980;BME280;57318;56.232;43.944;2023-04-27T08:39:39;98624.66;;;23.27;41.33
69980;BME280;57318;56.232;43.944;2023-04-27T08:42:12;98631.41;;;25.76;34.83
69980;BME280;57318;56.232;43.944;2023-04-27T08:44:42;98626.88;;;26.56;32.35
69980;BME280;57318;56.232;43.944;2023-04-27T08:47:08;98633.00;;;26.01;32.83
69980;BME280;57318;56.232;43.944;2023-04-27T08:49:34;98645.81;;;24.77;34.71
69980;BME280;57318;56.232;43.944;2023-04-27T08:52:03;98627.13;;;23.47;37.31
69980;BME280;57318;56.232;43.944;2023-04-27T08:54:35;98633.19;;;22.80;38.46
69980;BME280;57318;56.232;43.944;2023-04-27T08:57:00;98630.38;;;21.66;40.46
69980;BME280;57318;56.232;43.944;2023-04-27T08:59:27;98611.47;;;20.47;42.78
69980;BME280;57318;56.232;43.944;2023-04-27T09:01:53;98623.88;;;19.60;45.16
69980;BME280;57318;56.232;43.944;2023-04-27T09:04:18;98627.38;;;19.05;46.58
69980;BME280;57318;56.232;43.944;2023-04-27T09:06:44;98628.72;;;18.66;47.90
69980;BME280;57318;56.232;43.944;2023-04-27T09:09:20;98632.38;;;18.15;49.17
69980;BME280;57318;56.232;43.944;2023-04-27T09:11:46;98631.44;;;17.86;49.98
69980;BME280;57318;56.232;43.944;2023-04-27T09:14:19;98623.91;;;17.60;50.62
69980;BME280;57318;56.232;43.944;2023-04-27T09:16:52;98622.19;;;17.38;51.23
69980;BME280;57318;56.232;43.944;2023-04-27T09:19:27;98626.63;;;17.16;51.88
69980;BME280;57318;56.232;43.944;2023-04-27T09:22:07;98635.59;;;17.08;52.58
69980;BME280;57318;56.232;43.944;2023-04-27T09:24:33;98632.28;;;17.06;52.72
69980;BME280;57318;56.232;43.944;2023-04-27T09:26:59;98633.75;;;17.08;52.24
69980;BME280;57318;56.232;43.944;2023-04-27T09:29:36;98645.97;;;17.11;51.74
69980;BME280;57318;56.232;43.944;2023-04-27T09:32:18;98641.25;;;17.13;51.52
69980;BME280;57318;56.232;43.944;2023-04-27T09:34:45;98644.41;;;17.31;51.33
69980;BME280;57318;56.232;43.944;2023-04-27T09:37:11;98652.44;;;17.61;50.66
69980;BME280;57318;56.232;43.944;2023-04-27T09:39:38;98650.03;;;18.03;49.42
69980;BME280;57318;56.232;43.944;2023-04-27T09:42:05;98643.53;;;18.34;48.24
69980;BME280;57318;56.232;43.944;2023-04-27T09:44:32;98654.56;;;18.67;47.37
69980;BME280;57318;56.232;43.944;2023-04-27T09:46:59;98662.88;;;18.94;46.47
69980;BME280;57318;56.232;43.944;2023-04-27T09:49:26;98659.56;;;19.62;44.80
69980;BME280;57318;56.232;43.944;2023-04-27T09:51:56;98658.63;;;20.85;42.77
69980;BME280;57318;56.232;43.944;2023-04-27T09:54:26;98669.09;;;21.60;40.08
69980;BME280;57318;56.232;43.944;2023-04-27T10:08:39;98665.63;;;20.52;41.75
69980;BME280;57318;56.232;43.944;2023-04-27T10:11:13;98668.91;;;20.14;42.28
69980;BME280;57318;56.232;43.944;2023-04-27T10:13:53;98660.53;;;19.96;42.75
69980;BME280;57318;56.232;43.944;2023-04-27T10:16:19;98673.13;;;19.82;43.26
69980;BME280;57318;56.232;43.944;2023-04-27T10:18:54;98671.41;;;20.29;42.70
69980;BME280;57318;56.232;43.944;2023-04-27T10:21:20;98668.78;;;20.83;41.47
69980;BME280;57318;56.232;43.944;2023-04-27T10:23:50;98671.34;;;21.70;39.99
69980;BME280;57318;56.232;43.944;2023-04-27T10:26:24;98679.84;;;23.70;35.76
69980;BME280;57318;56.232;43.944;2023-04-27T10:29:07;98683.09;;;24.58;33.89
69980;BME280;57318;56.232;43.944;2023-04-27T10:31:33;98689.16;;;24.83;33.31
69980;BME280;57318;56.232;43.944;2023-04-27T10:34:10;98681.06;;;25.43;32.55
69980;BME280;57318;56.232;43.944;2023-04-27T10:36:39;98675.22;;;25.63;32.06
69980;BME280;57318;56.232;43.944;2023-04-27T10:39:20;98680.16;;;26.64;30.21
69980;BME280;57318;56.232;43.944;2023-04-27T10:41:54;98683.44;;;25.80;31.29
69980;BME280;57318;56.232;43.944;2023-04-27T10:44:30;98685.25;;;25.74;31.32
69980;BME280;57318;56.232;43.944;2023-04-27T10:46:59;98680.41;;;24.81;33.12
69980;BME280;57318;56.232;43.944;2023-04-27T10:49:28;98686.13;;;27.12;30.10
69980;BME280;57318;56.232;43.944;2023-04-27T10:51:57;98687.44;;;28.59;27.52
69980;BME280;57318;56.232;43.944;2023-04-27T10:54:27;98677.38;;;29.82;25.25
69980;BME280;57318;56.232;43.944;2023-04-27T10:56:53;98681.66;;;30.62;25.33
69980;BME280;57318;56.232;43.944;2023-04-27T10:59:20;98683.59;;;31.08;23.76
69980;BME280;57318;56.232;43.944;2023-04-27T11:01:48;98682.38;;;29.10;25.85
69980;BME280;57318;56.232;43.944;2023-04-27T11:04:15;98676.72;;;29.65;25.74
69980;BME280;57318;56.232;43.944;2023-04-27T11:06:43;98675.34;;;31.08;24.08
69980;BME280;57318;56.232;43.944;2023-04-27T11:09:12;98689.34;;;32.08;22.71
69980;BME280;57318;56.232;43.944;2023-04-27T11:11:43;98697.44;;;32.83;21.37
69980;BME280;57318;56.232;43.944;2023-04-27T11:14:14;98689.81;;;33.58;21.16
69980;BME280;57318;56.232;43.944;2023-04-27T11:16:45;98679.34;;;34.27;19.71
69980;BME280;57318;56.232;43.944;2023-04-27T11:19:11;98682.13;;;34.98;18.78
69980;BME280;57318;56.232;43.944;2023-04-27T11:21:37;98679.09;;;35.28;17.90
69980;BME280;57318;56.232;43.944;2023-04-27T11:24:05;98685.09;;;35.63;17.41
69980;BME280;57318;56.232;43.944;2023-04-27T11:26:31;98686.09;;;35.94;17.09
69980;BME280;57318;56.232;43.944;2023-04-27T11:31:27;98698.00;;;36.68;15.89
69980;BME280;57318;56.232;43.944;2023-04-27T11:34:02;98685.06;;;36.04;16.13
69980;BME280;57318;56.232;43.944;2023-04-27T11:36:28;98685.16;;;35.71;16.09
69980;BME280;57318;56.232;43.944;2023-04-27T11:38:57;98671.34;;;34.64;17.34
69980;BME280;57318;56.232;43.944;2023-04-27T11:41:33;98674.81;;;31.21;20.89
69980;BME280;57318;56.232;43.944;2023-04-27T11:44:06;98668.91;;;29.41;23.32
69980;BME280;57318;56.232;43.944;2023-04-27T11:46:35;98671.75;;;27.78;25.49
69980;BME280;57318;56.232;43.944;2023-04-27T11:49:05;98667.00;;;27.46;26.33
69980;BME280;57318;56.232;43.944;2023-04-27T11:51:32;98670.75;;;28.06;25.42
69980;BME280;57318;56.232;43.944;2023-04-27T11:54:02;98682.69;;;29.14;23.95
69980;BME280;57318;56.232;43.944;2023-04-27T11:56:39;98675.19;;;29.90;23.29
69980;BME280;57318;56.232;43.944;2023-04-27T11:59:17;98662.31;;;29.32;23.85
69980;BME280;57318;56.232;43.944;2023-04-27T12:01:43;98676.81;;;29.00;24.15
69980;BME280;57318;56.232;43.944;2023-04-27T12:04:09;98675.88;;;28.52;24.87
69980;BME280;57318;56.232;43.944;2023-04-27T12:06:35;98671.44;;;29.10;24.37
69980;BME280;57318;56.232;43.944;2023-04-27T12:09:02;98684.84;;;30.08;22.95
69980;BME280;57318;56.232;43.944;2023-04-27T12:11:28;98690.59;;;29.53;23.70
69980;BME280;57318;56.232;43.944;2023-04-27T12:13:54;98680.34;;;28.95;24.06
69980;BME280;57318;56.232;43.944;2023-04-27T12:16:21;98683.06;;;28.08;25.08
69980;BME280;57318;56.232;43.944;2023-04-27T12:18:48;98683.19;;;26.96;26.47
69980;BME280;57318;56.232;43.944;2023-04-27T12:21:14;98677.91;;;25.74;28.14
69980;BME280;57318;56.232;43.944;2023-04-27T12:23:40;98693.22;;;27.13;26.83
69980;BME280;57318;56.232;43.944;2023-04-27T12:26:06;98679.91;;;28.44;25.04
69980;BME280;57318;56.232;43.944;2023-04-27T12:28:32;98696.91;;;28.24;24.90
69980;BME280;57318;56.232;43.944;2023-04-27T12:30:57;98694.22;;;28.02;25.36
69980;BME280;57318;56.232;43.944;2023-04-27T12:33:24;98692.25;;;26.39;26.90
69980;BME280;57318;56.232;43.944;2023-04-27T12:35:50;98687.75;;;25.16;28.91
69980;BME280;57318;56.232;43.944;2023-04-27T12:38:16;98700.03;;;26.19;27.96
69980;BME280;57318;56.232;43.944;2023-04-27T12:40:42;98704.56;;;27.39;27.07
69980;BME280;57318;56.232;43.944;2023-04-27T12:43:07;98700.91;;;28.43;25.10
69980;BME280;57318;56.232;43.944;2023-04-27T12:45:34;98702.28;;;29.01;24.34
69980;BME280;57318;56.232;43.944;2023-04-27T12:47:59;98713.56;;;29.47;23.32
69980;BME280;57318;56.232;43.944;2023-04-27T12:50:25;98709.34;;;29.77;23.47
69980;BME280;57318;56.232;43.944;2023-04-27T12:52:51;98704.31;;;30.16;22.50
69980;BME280;57318;56.232;43.944;2023-04-27T12:55:17;98711.03;;;29.35;22.93
69980;BME280;57318;56.232;43.944;2023-04-27T12:57:43;98709.69;;;29.43;22.94
69980;BME280;57318;56.232;43.944;2023-04-27T13:00:09;98708.03;;;29.90;22.60
69980;BME280;57318;56.232;43.944;2023-04-27T13:02:35;98712.75;;;29.14;23.06